Time;durP1;ratioP1;P1;durP2;ratioP2;P2;SDS_P1;SDS_P2;PMS_P1;PMS_P2;Temp;Humidity;BMP_temperature;BMP_pressure;BME280_temperature;BME280_humidity;BME280_pressure;Samples;Min_cycle;Max_cycle;Signal;HPM_P1;HPM_P2
2021/09/29 00:02:07;;;;;;;0.63;0.30;;;;;;;9.11;100.00;101478.19;5101250;28;20052;-83
2021/09/29 00:04:40;;;;;;;0.20;0.20;;;;;;;9.18;100.00;101481.56;5101997;28;20051;-83
2021/09/29 00:07:08;;;;;;;0.13;0.13;;;;;;;9.10;100.00;101476.56;5096534;28;20044;-83
2021/09/29 00:09:41;;;;;;;0.30;0.30;;;;;;;9.04;100.00;101472.09;5097732;28;20731;-84
2021/09/29 00:12:14;;;;;;;0.20;0.20;;;;;;;9.09;100.00;101477.63;5100195;28;20487;-83
2021/09/29 00:14:49;;;;;;;0.17;0.17;;;;;;;9.03;100.00;101467.75;5096575;28;20058;-83
2021/09/29 00:17:23;;;;;;;0.20;0.20;;;;;;;9.06;100.00;101474.56;5096289;28;20044;-83
2021/09/29 00:19:56;;;;;;;0.22;0.20;;;;;;;9.05;100.00;101470.22;5100695;28;20040;-83
2021/09/29 00:22:24;;;;;;;0.20;0.20;;;;;;;9.04;100.00;101471.28;5102634;28;20471;-83
2021/09/29 00:24:57;;;;;;;0.30;0.30;;;;;;;9.00;100.00;101471.81;5113770;27;20802;-83
2021/09/29 00:27:30;;;;;;;0.20;0.20;;;;;;;9.00;100.00;101471.81;5099098;28;20043;-83
2021/09/29 00:30:07;;;;;;;0.25;0.20;;;;;;;9.00;100.00;101471.81;5106100;28;20043;-83
2021/09/29 00:32:43;;;;;;;0.20;0.20;;;;;;;9.01;100.00;101461.75;5104842;28;20376;-82
2021/09/29 00:35:13;;;;;;;0.30;0.30;;;;;;;8.97;100.00;101457.91;5103566;28;20662;-83
2021/09/29 00:37:48;;;;;;;0.20;0.20;;;;;;;8.93;100.00;101452.13;5103132;28;20048;-83
2021/09/29 00:40:21;;;;;;;0.20;0.20;;;;;;;8.94;100.00;101458.41;5103394;28;20067;-83
2021/09/29 00:42:49;;;;;;;0.25;0.20;;;;;;;8.92;100.00;101449.66;5103649;28;20070;-83
2021/09/29 00:45:19;;;;;;;0.20;0.20;;;;;;;8.95;100.00;101454.59;5103743;27;20059;-83
2021/09/29 00:47:52;;;;;;;0.20;0.20;;;;;;;8.92;100.00;101441.53;5103190;27;20063;-83
2021/09/29 00:50:20;;;;;;;0.20;0.20;;;;;;;8.92;100.00;101446.97;5102743;28;20051;-83
2021/09/29 00:52:53;;;;;;;0.20;0.20;;;;;;;8.87;100.00;101442.28;5102212;28;20044;-83
2021/09/29 00:55:27;;;;;;;0.28;0.28;;;;;;;8.84;100.00;101435.47;5101465;28;20058;-83
2021/09/29 00:58:00;;;;;;;0.20;0.20;;;;;;;8.87;100.00;101444.19;5102502;28;20048;-83
2021/09/29 01:00:34;;;;;;;0.25;0.25;;;;;;;8.88;100.00;101443.09;5105117;28;20399;-83
2021/09/29 01:03:05;;;;;;;0.20;0.20;;;;;;;8.83;100.00;101439.22;5104666;28;20047;-83
2021/09/29 01:05:41;;;;;;;0.20;0.20;;;;;;;8.81;100.00;101438.69;5099350;28;20064;-82
2021/09/29 01:08:19;;;;;;;0.45;0.20;;;;;;;8.78;100.00;101433.75;5104259;28;20051;-83
2021/09/29 01:10:59;;;;;;;0.20;0.20;;;;;;;8.79;100.00;101429.94;5100904;28;20051;-83
2021/09/29 01:13:41;;;;;;;0.20;0.20;;;;;;;8.76;100.00;101427.75;5102933;28;20043;-84
2021/09/29 01:16:13;;;;;;;0.20;0.20;;;;;;;8.75;100.00;101419.84;5116753;27;20055;-83
2021/09/29 01:18:44;;;;;;;0.30;0.30;;;;;;;8.72;100.00;101413.03;5101875;28;20792;-83
2021/09/29 01:21:17;;;;;;;1.08;0.30;;;;;;;8.69;100.00;101416.25;5101656;28;20040;-83
2021/09/29 01:24:02;;;;;;;0.20;0.20;;;;;;;8.65;100.00;101409.66;5104953;28;20052;-83
2021/09/29 01:26:34;;;;;;;0.28;0.28;;;;;;;8.70;100.00;101414.34;5102375;27;20076;-83
2021/09/29 01:29:06;;;;;;;0.20;0.20;;;;;;;8.64;100.00;101408.84;5103734;28;20047;-83
2021/09/29 01:31:40;;;;;;;0.20;0.20;;;;;;;8.67;100.00;101407.50;5098932;28;20052;-83
2021/09/29 01:34:14;;;;;;;0.20;0.20;;;;;;;8.65;100.00;101399.63;5102402;28;20056;-82
2021/09/29 01:36:47;;;;;;;0.20;0.20;;;;;;;8.57;100.00;101383.78;5101928;28;20042;-83
2021/09/29 01:39:21;;;;;;;0.20;0.20;;;;;;;8.58;100.00;101390.03;5100164;28;20047;-82
2021/09/29 01:41:55;;;;;;;0.20;0.20;;;;;;;8.60;100.00;101387.88;5101638;28;20389;-82
2021/09/29 01:44:31;;;;;;;0.22;0.20;;;;;;;8.65;100.00;101393.41;5117617;27;20052;-82
2021/09/29 01:47:06;;;;;;;0.20;0.20;;;;;;;8.57;100.00;101388.38;5102112;28;20075;-82
2021/09/29 01:49:38;;;;;;;0.20;0.20;;;;;;;8.60;100.00;101399.53;5102923;28;20039;-82
2021/09/29 01:52:13;;;;;;;0.20;0.20;;;;;;;8.57;100.00;101383.78;5099172;28;20036;-83
2021/09/29 01:54:47;;;;;;;0.30;0.20;;;;;;;8.61;100.00;101384.09;5102829;28;20067;-83
2021/09/29 01:57:17;;;;;;;0.30;0.30;;;;;;;8.53;100.00;101381.81;5099316;28;20058;-82
2021/09/29 01:59:47;;;;;;;0.20;0.10;;;;;;;8.51;100.00;101372.03;5101031;28;20048;-83
2021/09/29 02:02:23;;;;;;;0.00;0.00;;;;;;;8.53;100.00;101379.91;5100702;28;20054;-82
2021/09/29 02:04:52;;;;;;;0.10;0.10;;;;;;;8.51;100.00;101372.03;5097460;28;20593;-82
2021/09/29 02:07:28;;;;;;;0.20;0.20;;;;;;;8.51;100.00;101380.16;5099988;28;20056;-82
2021/09/29 02:10:01;;;;;;;0.20;0.20;;;;;;;8.48;100.00;101375.25;5097232;28;20040;-82
2021/09/29 02:12:31;;;;;;;0.20;0.20;;;;;;;8.48;100.00;101369.81;5103429;28;20074;-82
2021/09/29 02:15:06;;;;;;;0.30;0.30;;;;;;;8.51;100.00;101373.94;5096527;28;20044;-83
2021/09/29 02:17:39;;;;;;;0.32;0.20;;;;;;;8.50;100.00;101369.56;5098410;28;20425;-82
2021/09/29 02:20:08;;;;;;;0.20;0.20;;;;;;;8.48;100.00;101360.88;5099610;28;20047;-82
2021/09/29 02:22:42;;;;;;;0.20;0.20;;;;;;;8.51;100.00;101357.66;5098946;28;20058;-82
2021/09/29 02:25:15;;;;;;;0.20;0.20;;;;;;;8.49;100.00;101355.19;5099403;28;20057;-82
2021/09/29 02:27:50;;;;;;;0.10;0.10;;;;;;;8.48;100.00;101360.88;5101555;28;20081;-82
2021/09/29 02:30:23;;;;;;;0.80;0.20;;;;;;;8.48;100.00;101358.16;5097154;28;20048;-82
2021/09/29 02:32:56;;;;;;;0.20;0.20;;;;;;;8.39;100.00;101346.84;5099585;28;20066;-82
2021/09/29 02:35:29;;;;;;;0.20;0.20;;;;;;;8.45;100.00;101350.50;5100900;28;20074;-82
2021/09/29 02:38:03;;;;;;;0.20;0.20;;;;;;;8.50;100.00;101343.25;5101186;28;20051;-82
2021/09/29 02:40:36;;;;;;;0.20;0.20;;;;;;;8.47;100.00;101349.19;5097896;28;20044;-82
2021/09/29 02:43:10;;;;;;;0.20;0.20;;;;;;;8.41;100.00;101336.59;5097239;28;20086;-82
2021/09/29 02:45:45;;;;;;;0.30;0.30;;;;;;;8.44;100.00;101327.97;5094362;28;20059;-82
2021/09/29 02:48:18;;;;;;;0.28;0.28;;;;;;;8.50;100.00;101326.97;5094376;28;20036;-82
2021/09/29 02:50:51;;;;;;;0.20;0.20;;;;;;;8.42;100.00;101321.94;5096221;28;20055;-82
2021/09/29 02:53:20;;;;;;;0.20;0.20;;;;;;;8.34;100.00;101327.78;5095309;28;20060;-82
2021/09/29 02:55:48;;;;;;;0.20;0.20;;;;;;;8.38;100.00;101328.94;5097132;28;20056;-82
2021/09/29 02:58:18;;;;;;;0.30;0.30;;;;;;;8.38;100.00;101320.81;5097711;28;20054;-82
2021/09/29 03:00:46;;;;;;;0.20;0.20;;;;;;;8.35;100.00;101315.88;5101920;28;20055;-82
2021/09/29 03:03:21;;;;;;;0.20;0.20;;;;;;;8.31;100.00;101312.88;5102067;28;20070;-83
2021/09/29 03:05:54;;;;;;;0.20;0.20;;;;;;;8.30;100.00;101318.50;5100120;28;20081;-82
2021/09/29 03:08:27;;;;;;;0.20;0.20;;;;;;;8.25;100.00;101307.59;5102305;28;20490;-83
2021/09/29 03:11:01;;;;;;;0.35;0.25;;;;;;;8.27;100.00;101310.88;5098178;28;20055;-83
2021/09/29 03:13:35;;;;;;;0.85;0.30;;;;;;;8.26;100.00;101306.53;5107806;27;20051;-83
2021/09/29 03:16:08;;;;;;;0.20;0.20;;;;;;;8.28;100.00;101312.53;5106768;28;20039;-83
2021/09/29 03:18:41;;;;;;;0.17;0.17;;;;;;;8.20;100.00;101312.94;5104593;28;20495;-83
2021/09/29 03:21:15;;;;;;;0.40;0.40;;;;;;;8.22;100.00;101300.78;5099006;28;20052;-82
2021/09/29 03:23:49;;;;;;;0.20;0.20;;;;;;;8.24;100.00;101297.81;5100797;28;20707;-83
2021/09/29 03:26:22;;;;;;;0.20;0.20;;;;;;;8.17;100.00;101292.56;5101222;28;20067;-82
2021/09/29 03:28:57;;;;;;;0.32;0.20;;;;;;;8.18;100.00;101295.03;5101398;28;20051;-83
2021/09/29 03:31:30;;;;;;;0.20;0.20;;;;;;;8.03;100.00;101275.84;5098629;27;20500;-83
2021/09/29 03:34:03;;;;;;;0.20;0.20;;;;;;;8.12;100.00;101293.31;5104428;28;20424;-83
2021/09/29 03:36:31;;;;;;;0.20;0.20;;;;;;;8.18;100.00;101295.03;5096665;28;20059;-81
2021/09/29 03:39:05;;;;;;;0.10;0.10;;;;;;;8.12;100.00;101278.94;5100273;28;20781;-82
2021/09/29 03:41:38;;;;;;;0.20;0.20;;;;;;;8.15;100.00;101289.31;5116497;27;20411;-82
2021/09/29 03:44:12;;;;;;;0.20;0.20;;;;;;;8.17;100.00;101279.00;5104770;27;20121;-82
2021/09/29 03:46:46;;;;;;;0.20;0.20;;;;;;;8.11;100.00;101269.19;5100330;27;20055;-83
2021/09/29 03:49:14;;;;;;;0.20;0.20;;;;;;;8.20;100.00;101275.81;5099093;28;20415;-83
2021/09/29 03:51:47;;;;;;;0.17;0.17;;;;;;;8.22;100.00;101276.38;5096283;28;20439;-83
2021/09/29 03:54:20;;;;;;;0.20;0.20;;;;;;;8.22;100.00;101264.72;5098693;28;20059;-82
2021/09/29 03:56:48;;;;;;;0.20;0.20;;;;;;;8.20;100.00;101267.66;5097937;28;20051;-82
2021/09/29 03:59:19;;;;;;;0.20;0.20;;;;;;;8.22;100.00;101267.44;5095161;28;20861;-82
2021/09/29 04:01:52;;;;;;;0.28;0.22;;;;;;;8.20;100.00;101256.00;5100698;28;20055;-82
2021/09/29 04:04:20;;;;;;;0.20;0.20;;;;;;;8.24;100.00;101265.28;5097186;28;20040;-82
2021/09/29 04:06:54;;;;;;;0.43;0.20;;;;;;;8.26;100.00;101258.56;5100283;28;20062;-82
2021/09/29 04:09:22;;;;;;;0.20;0.20;;;;;;;8.25;100.00;101256.91;5099803;28;20048;-82
2021/09/29 04:11:50;;;;;;;0.22;0.20;;;;;;;8.19;100.00;101252.50;5095455;28;20048;-82
2021/09/29 04:14:25;;;;;;;0.20;0.20;;;;;;;8.26;100.00;101258.56;5099852;28;20047;-82
2021/09/29 04:16:58;;;;;;;0.20;0.20;;;;;;;8.28;100.00;101255.59;5099371;28;20054;-82
2021/09/29 04:19:26;;;;;;;0.20;0.20;;;;;;;8.29;100.00;101255.34;5100018;28;20412;-82
2021/09/29 04:22:00;;;;;;;0.20;0.20;;;;;;;8.34;100.00;101254.56;5097023;28;20051;-82
2021/09/29 04:24:35;;;;;;;0.10;0.10;;;;;;;8.38;100.00;101253.00;5096820;28;20052;-82
2021/09/29 04:27:09;;;;;;;0.20;0.20;;;;;;;8.37;100.00;101254.09;5097138;28;20628;-83
2021/09/29 04:29:40;;;;;;;0.30;0.30;;;;;;;8.37;100.00;101247.81;5095470;28;20052;-82
2021/09/29 04:32:13;;;;;;;0.20;0.20;;;;;;;8.38;100.00;101249.47;5099715;28;20036;-82
2021/09/29 04:34:47;;;;;;;0.28;0.28;;;;;;;8.38;100.00;101241.34;5097416;28;20071;-82
2021/09/29 04:37:20;;;;;;;0.40;0.20;;;;;;;8.44;100.00;101253.91;5103143;28;20047;-82
2021/09/29 04:39:49;;;;;;;0.20;0.20;;;;;;;8.43;100.00;101252.25;5098035;28;20051;-83
2021/09/29 04:42:22;;;;;;;0.20;0.20;;;;;;;8.38;100.00;101246.75;5101580;28;20063;-82
2021/09/29 04:44:52;;;;;;;0.30;0.30;;;;;;;8.38;100.00;101247.56;5101116;28;20058;-82
2021/09/29 04:47:26;;;;;;;0.20;0.20;;;;;;;8.44;100.00;101243.06;5098849;28;20047;-82
2021/09/29 04:49:54;;;;;;;0.20;0.20;;;;;;;8.41;100.00;101246.25;5099603;28;20052;-82
2021/09/29 04:52:24;;;;;;;0.20;0.20;;;;;;;8.36;100.00;101228.03;5099834;28;20055;-82
2021/09/29 04:54:52;;;;;;;0.20;0.20;;;;;;;8.40;100.00;101226.47;5099037;28;20059;-82
2021/09/29 04:57:41;;;;;;;0.20;0.20;;;;;;;8.43;100.00;101230.56;5121697;27;20124;-81
2021/09/29 05:00:15;;;;;;;0.30;0.30;;;;;;;8.44;100.00;101229.50;5119890;28;20051;-82
2021/09/29 05:02:45;;;;;;;0.20;0.20;;;;;;;8.47;100.00;101220.88;5120065;27;20498;-82
2021/09/29 05:05:19;;;;;;;0.28;0.28;;;;;;;8.45;100.00;101218.44;5116983;27;20141;-82
2021/09/29 05:07:49;;;;;;;0.25;0.25;;;;;;;8.41;100.00;101211.84;5119031;28;20048;-81
2021/09/29 05:10:22;;;;;;;0.20;0.20;;;;;;;8.46;100.00;101211.09;5116608;28;20066;-82
2021/09/29 05:12:53;;;;;;;0.20;0.20;;;;;;;8.48;100.00;101225.25;5120120;28;20051;-82
2021/09/29 05:15:26;;;;;;;0.28;0.28;;;;;;;8.47;100.00;101216.25;5151988;27;20058;-82
2021/09/29 05:17:55;;;;;;;0.20;0.20;;;;;;;8.48;100.00;101226.06;5119286;28;20043;-81
2021/09/29 05:20:28;;;;;;;0.20;0.20;;;;;;;8.49;100.00;101224.16;5117729;27;20048;-82
2021/09/29 05:23:01;;;;;;;0.20;0.20;;;;;;;8.50;100.00;101215.75;5119000;28;20474;-81
2021/09/29 05:25:34;;;;;;;0.20;0.20;;;;;;;8.49;100.00;101221.44;5115139;28;20047;-82
2021/09/29 05:28:07;;;;;;;0.20;0.20;;;;;;;8.48;100.00;101212.50;5112320;28;20040;-83
2021/09/29 05:30:40;;;;;;;0.28;0.28;;;;;;;8.48;100.00;101217.09;5112892;28;20035;-82
2021/09/29 05:33:13;;;;;;;0.20;0.20;;;;;;;8.54;100.00;101213.38;5112227;28;20495;-82
2021/09/29 05:35:46;;;;;;;0.20;0.20;;;;;;;8.52;100.00;101210.09;5111606;28;21867;-82
2021/09/29 05:38:20;;;;;;;0.20;0.20;;;;;;;8.51;100.00;101200.31;5111915;28;20050;-83
2021/09/29 05:40:53;;;;;;;0.20;0.20;;;;;;;8.46;100.00;101189.41;5111221;27;20062;-83
2021/09/29 05:43:29;;;;;;;0.20;0.20;;;;;;;8.46;100.00;101186.69;5111843;27;20054;-82
2021/09/29 05:45:58;;;;;;;0.20;0.20;;;;;;;8.55;100.00;101201.44;5114808;27;20047;-82
2021/09/29 05:48:31;;;;;;;0.20;0.20;;;;;;;8.58;100.00;101194.69;5109925;27;20051;-83
2021/09/29 05:51:05;;;;;;;0.20;0.20;;;;;;;8.60;100.00;101197.97;5112587;28;20514;-82
2021/09/29 05:53:33;;;;;;;0.20;0.20;;;;;;;8.61;100.00;101192.28;5115489;28;20051;-82
2021/09/29 05:56:01;;;;;;;0.28;0.28;;;;;;;8.64;100.00;101191.78;5116246;27;20044;-83
2021/09/29 05:58:36;;;;;;;0.30;0.30;;;;;;;8.66;100.00;101192.34;5117149;28;20066;-82
2021/09/29 06:01:09;;;;;;;0.28;0.22;;;;;;;8.68;100.00;101184.75;5114966;28;20052;-82
2021/09/29 06:03:37;;;;;;;0.40;0.40;;;;;;;8.72;100.00;101187.78;5107636;28;20083;-82
2021/09/29 06:06:06;;;;;;;0.20;0.20;;;;;;;8.73;100.00;101192.16;5113849;27;20113;-82
2021/09/29 06:08:39;;;;;;;0.20;0.20;;;;;;;8.76;100.00;101185.41;5102014;28;20377;-82
2021/09/29 06:11:12;;;;;;;0.20;0.20;;;;;;;8.75;100.00;101187.28;5095325;28;20051;-82
2021/09/29 06:13:47;;;;;;;0.30;0.30;;;;;;;8.79;100.00;101184.88;5100026;28;20055;-82
2021/09/29 06:16:20;;;;;;;0.20;0.20;;;;;;;8.82;100.00;101189.78;5097601;28;20052;-82
2021/09/29 06:18:54;;;;;;;0.22;0.22;;;;;;;8.85;100.00;101186.56;5099188;28;20040;-82
2021/09/29 06:21:27;;;;;;;0.20;0.20;;;;;;;8.87;100.00;101181.72;5097706;28;20070;-82
2021/09/29 06:24:00;;;;;;;0.20;0.20;;;;;;;8.92;100.00;101181.78;5097466;28;20683;-83
2021/09/29 06:26:33;;;;;;;0.28;0.28;;;;;;;8.97;100.00;101181.00;5096905;28;20052;-82
2021/09/29 06:29:08;;;;;;;0.40;0.20;;;;;;;9.01;100.00;101182.94;5094137;27;20052;-83
2021/09/29 06:31:36;;;;;;;0.30;0.30;;;;;;;9.01;100.00;101185.63;5093422;28;20575;-83
2021/09/29 06:34:09;;;;;;;0.32;0.25;;;;;;;8.99;100.00;101179.66;5097719;28;20043;-82
2021/09/29 06:36:42;;;;;;;0.30;0.30;;;;;;;9.13;100.00;101181.97;5095475;28;20048;-82
2021/09/29 06:39:11;;;;;;;0.20;0.20;;;;;;;9.17;100.00;101177.66;5097907;28;20047;-82
2021/09/29 06:41:44;;;;;;;0.22;0.22;;;;;;;9.16;100.00;101170.59;5098317;27;20048;-81
2021/09/29 06:44:19;;;;;;;0.20;0.20;;;;;;;9.21;100.00;101172.50;5098390;27;20046;-81
2021/09/29 06:46:53;;;;;;;0.22;0.22;;;;;;;9.23;100.00;101173.09;5098474;28;20043;-82
2021/09/29 06:49:26;;;;;;;0.20;0.20;;;;;;;9.22;100.00;101180.41;5098680;28;20047;-82
2021/09/29 06:51:59;;;;;;;0.20;0.20;;;;;;;9.22;100.00;101164.09;5098331;28;20052;-82
2021/09/29 06:54:32;;;;;;;0.40;0.20;;;;;;;9.25;100.00;101170.91;5096755;28;20048;-82
2021/09/29 06:57:00;;;;;;;0.30;0.30;;;;;;;9.27;100.00;101172.31;5098310;28;20047;-82
2021/09/29 06:59:30;;;;;;;0.30;0.30;;;;;;;9.31;100.00;101165.28;5096346;27;20052;-82
2021/09/29 07:02:03;;;;;;;0.30;0.30;;;;;;;9.36;100.00;101172.63;5092823;28;20048;-83
2021/09/29 07:04:37;;;;;;;0.30;0.30;;;;;;;9.41;100.00;101175.41;5098503;28;20503;-82
2021/09/29 07:07:11;;;;;;;0.25;0.25;;;;;;;9.48;100.00;101177.91;5094806;28;20089;-82
2021/09/29 07:09:39;;;;;;;0.20;0.20;;;;;;;9.53;100.00;101173.31;5101939;28;20055;-82
2021/09/29 07:12:12;;;;;;;0.40;0.40;;;;;;;9.68;100.00;101167.19;5095260;27;20055;-81
2021/09/29 07:14:47;;;;;;;0.35;0.30;;;;;;;9.70;100.00;101161.47;5098654;28;20047;-81
2021/09/29 07:17:23;;;;;;;0.20;0.20;;;;;;;9.77;100.00;101153.09;5095690;28;20040;-80
2021/09/29 07:19:55;;;;;;;0.13;0.13;;;;;;;9.83;100.00;101155.59;5098234;28;20055;-81
2021/09/29 07:22:28;;;;;;;0.20;0.20;;;;;;;9.86;100.00;101149.63;5109617;27;20054;-82
2021/09/29 07:25:01;;;;;;;0.20;0.20;;;;;;;9.95;100.00;101146.41;5096457;28;20040;-82
2021/09/29 07:27:34;;;;;;;0.20;0.20;;;;;;;9.95;100.00;101149.94;5094688;28;20055;-81
2021/09/29 07:30:10;;;;;;;0.20;0.20;;;;;;;9.94;100.00;101139.31;5092593;28;20052;-82
2021/09/29 07:32:45;;;;;;;0.20;0.20;;;;;;;9.93;100.00;101143.13;5093577;28;20640;-82
2021/09/29 07:35:14;;;;;;;0.13;0.13;;;;;;;9.93;100.00;101141.22;5094008;28;20058;-81
2021/09/29 07:37:48;;;;;;;0.55;0.40;;;;;;;10.00;100.00;101138.28;5093783;28;20046;-81
2021/09/29 07:40:21;;;;;;;0.20;0.20;;;;;;;10.12;100.00;101135.31;5091734;28;20059;-81
2021/09/29 07:42:55;;;;;;;0.20;0.20;;;;;;;10.25;100.00;101134.84;5089330;28;20044;-81
2021/09/29 07:45:26;;;;;;;0.20;0.20;;;;;;;10.29;100.00;101121.50;5094965;28;20059;-82
2021/09/29 07:47:54;;;;;;;0.30;0.30;;;;;;;10.36;100.00;101127.56;5084873;28;20074;-82
2021/09/29 07:50:28;;;;;;;0.20;0.20;;;;;;;10.41;100.00;101132.19;5082896;28;20607;-82
2021/09/29 07:53:01;;;;;;;0.30;0.30;;;;;;;10.44;100.00;101131.66;5084661;28;20058;-81
2021/09/29 07:55:30;;;;;;;0.20;0.20;;;;;;;10.48;100.00;101117.25;5089999;28;20535;-81
2021/09/29 07:58:03;;;;;;;0.25;0.25;;;;;;;10.54;100.00;101110.72;5090600;27;20056;-81
2021/09/29 08:00:37;;;;;;;0.30;0.30;;;;;;;10.64;100.00;101118.09;5087553;28;20054;-81
2021/09/29 08:03:10;;;;;;;0.30;0.30;;;;;;;10.66;100.00;101113.22;5106641;27;20089;-81
2021/09/29 08:05:44;;;;;;;0.38;0.30;;;;;;;10.73;100.00;101118.41;5085568;28;20051;-81
2021/09/29 08:08:17;;;;;;;0.20;0.20;;;;;;;10.77;100.00;101111.34;5081907;28;20048;-81
2021/09/29 08:10:50;;;;;;;0.20;0.20;;;;;;;10.83;100.00;101110.22;5083151;28;20047;-81
2021/09/29 08:13:23;;;;;;;0.25;0.20;;;;;;;10.88;100.00;101104.81;5089128;28;20047;-81
2021/09/29 08:15:59;;;;;;;0.15;0.15;;;;;;;10.91;100.00;101098.00;5088517;28;20059;-81
2021/09/29 08:18:32;;;;;;;0.20;0.20;;;;;;;11.00;100.00;101087.38;5090713;28;20844;-81
2021/09/29 08:21:09;;;;;;;0.20;0.20;;;;;;;11.12;100.00;101085.19;5089461;28;20055;-82
2021/09/29 08:23:46;;;;;;;0.22;0.22;;;;;;;11.20;100.00;101071.00;5085198;28;20500;-80
2021/09/29 08:26:32;;;;;;;0.30;0.30;;;;;;;11.31;100.00;101068.25;5082266;28;20057;-80
2021/09/29 08:32:14;;;;;;;0.20;0.20;;;;;;;11.44;100.00;101061.44;5023256;28;21364;-81
2021/09/29 08:34:53;;;;;;;0.30;0.30;;;;;;;11.57;100.00;101058.13;5023384;28;20730;-81
2021/09/29 08:37:33;;;;;;;0.20;0.20;;;;;;;11.57;100.00;101048.06;5060772;28;20060;-81
2021/09/29 08:43:06;;;;;;;0.22;0.22;;;;;;;11.73;100.00;101048.81;5087587;28;20059;-81
2021/09/29 08:45:48;;;;;;;0.32;0.30;;;;;;;11.67;100.00;101041.75;5091352;28;20323;-80
2021/09/29 08:48:36;;;;;;;0.30;0.30;;;;;;;11.57;100.00;101030.88;5095836;28;20042;-81
2021/09/29 08:51:27;;;;;;;0.20;0.20;;;;;;;11.64;100.00;101004.16;5091926;28;20511;-82
2021/09/29 08:54:11;;;;;;;0.38;0.30;;;;;;;11.88;100.00;101009.75;5075489;28;20047;-81
2021/09/29 09:16:35;;;;;;;0.20;0.20;;;;;;;11.85;100.00;101002.13;5083522;28;20067;-81
2021/09/29 09:19:08;;;;;;;0.30;0.30;;;;;;;11.94;100.00;101007.84;5080518;28;20058;-81
2021/09/29 09:21:58;;;;;;;0.20;0.20;;;;;;;11.97;100.00;100996.34;5076603;28;20941;-81
2021/09/29 09:24:33;;;;;;;0.30;0.30;;;;;;;12.07;100.00;100996.31;5080813;28;20051;-82
2021/09/29 09:27:09;;;;;;;0.30;0.25;;;;;;;12.15;100.00;100991.34;5076283;28;20056;-82
2021/09/29 09:29:46;;;;;;;0.20;0.20;;;;;;;12.22;100.00;100980.94;5081933;28;20055;-81
2021/09/29 09:32:22;;;;;;;0.20;0.20;;;;;;;12.20;100.00;100991.31;5076651;28;20062;-82
2021/09/29 09:35:00;;;;;;;0.30;0.30;;;;;;;12.23;100.00;100988.81;5085031;28;20043;-82
2021/09/29 09:37:31;;;;;;;0.22;0.22;;;;;;;12.30;100.00;100984.97;5074542;28;20890;-82
2021/09/29 09:40:06;;;;;;;0.20;0.20;;;;;;;12.36;100.00;100979.19;5069361;28;21568;-82
2021/09/29 09:42:42;;;;;;;0.30;0.30;;;;;;;12.36;100.00;100981.94;5074891;28;20060;-81
2021/09/29 09:45:18;;;;;;;0.20;0.20;;;;;;;12.29;100.00;100978.72;5077771;28;20051;-81
2021/09/29 09:47:51;;;;;;;0.30;0.30;;;;;;;12.29;100.00;100981.44;5082727;28;20288;-83
2021/09/29 09:50:26;;;;;;;0.68;0.38;;;;;;;12.36;100.00;100979.19;5076002;27;20066;-81
2021/09/29 09:52:56;;;;;;;0.20;0.20;;;;;;;12.47;100.00;100993.59;5080902;27;20052;-82
2021/09/29 09:55:29;;;;;;;0.30;0.30;;;;;;;12.61;100.00;100984.72;5082980;27;20054;-81
2021/09/29 09:57:58;;;;;;;0.30;0.30;;;;;;;12.61;100.00;100982.00;5086667;28;20051;-81
2021/09/29 10:00:33;;;;;;;0.20;0.20;;;;;;;12.56;100.00;100982.88;5076148;28;20487;-82
2021/09/29 10:03:07;;;;;;;0.35;0.35;;;;;;;12.70;100.00;100981.09;5077627;28;20044;-81
2021/09/29 10:05:35;;;;;;;0.30;0.30;;;;;;;12.72;100.00;100972.66;5076160;28;20766;-82
2021/09/29 10:08:13;;;;;;;0.32;0.32;;;;;;;12.77;100.00;100975.31;5081735;27;20847;-82
2021/09/29 10:10:57;;;;;;;0.20;0.20;;;;;;;12.95;100.00;100971.03;5080464;28;20051;-81
2021/09/29 10:13:51;;;;;;;0.20;0.20;;;;;;;12.90;100.00;100957.44;5077275;28;20056;-81
2021/09/29 10:27:53;;;;;;;0.20;0.20;;;;;;;13.24;100.00;100949.16;5074603;28;20070;-80
2021/09/29 10:30:32;;;;;;;0.63;0.20;;;;;;;13.18;100.00;100950.31;5078694;28;20056;-81
2021/09/29 10:33:08;;;;;;;0.50;0.30;;;;;;;13.20;100.00;100948.09;5082930;27;20048;-81
2021/09/29 10:35:47;;;;;;;0.20;0.20;;;;;;;13.20;100.00;100950.00;5083270;28;20057;-81
2021/09/29 10:41:23;;;;;;;0.30;0.30;;;;;;;13.26;100.00;100933.25;5082871;28;20044;-81
2021/09/29 10:44:07;;;;;;;0.20;0.20;;;;;;;13.21;100.00;100930.59;5073595;28;20039;-81
2021/09/29 10:46:53;;;;;;;0.20;0.20;;;;;;;13.25;100.00;100928.09;5086259;28;20059;-83
2021/09/29 11:04:25;;;;;;;0.20;0.20;;;;;;;13.38;100.00;100888.31;5099494;28;20054;-81
2021/09/29 11:07:09;;;;;;;0.35;0.30;;;;;;;13.47;100.00;100885.75;5095045;27;20066;-80
2021/09/29 11:27:34;;;;;;;0.20;0.20;;;;;;;13.67;100.00;100866.34;5055740;28;20808;-80
2021/09/29 11:30:19;;;;;;;0.20;0.20;;;;;;;13.70;100.00;100873.94;5091467;28;20056;-81
2021/09/29 11:32:53;;;;;;;1.27;0.30;;;;;;;13.69;100.00;100866.03;5102336;28;20044;-81
2021/09/29 11:35:38;;;;;;;0.30;0.30;;;;;;;13.70;100.00;100856.69;5092875;28;20047;-80
2021/09/29 11:38:35;;;;;;;0.20;0.20;;;;;;;13.80;100.00;100864.78;5096744;28;20412;-81
2021/09/29 12:09:39;;;;;;;0.25;0.25;;;;;;;13.97;100.00;100858.75;5096431;28;20058;-81
2021/09/29 12:12:18;;;;;;;0.15;0.15;;;;;;;14.01;100.00;100850.75;5096804;28;20058;-81
2021/09/29 12:14:53;;;;;;;0.20;0.20;;;;;;;14.07;100.00;100842.19;5092932;28;20052;-80
2021/09/29 12:17:32;;;;;;;0.20;0.20;;;;;;;14.07;100.00;100835.88;5096701;28;20052;-81
2021/09/29 12:20:11;;;;;;;0.20;0.20;;;;;;;14.42;100.00;100839.13;5089386;28;20052;-81
2021/09/29 12:22:45;;;;;;;0.30;0.28;;;;;;;14.66;100.00;100836.22;5087932;28;20048;-81
2021/09/29 12:25:25;;;;;;;0.28;0.28;;;;;;;14.70;100.00;100828.22;5088987;28;20507;-81
2021/09/29 12:28:13;;;;;;;0.20;0.20;;;;;;;14.67;99.66;100809.66;5112131;27;20055;-82
2021/09/29 12:30:43;;;;;;;0.25;0.25;;;;;;;14.54;99.77;100817.53;5092283;28;20400;-81
2021/09/29 12:33:20;;;;;;;0.20;0.20;;;;;;;14.58;99.15;100798.53;5095496;28;20039;-80
2021/09/29 12:35:54;;;;;;;0.30;0.30;;;;;;;14.69;98.88;100789.03;5096828;28;20051;-81
2021/09/29 12:38:37;;;;;;;0.20;0.20;;;;;;;14.49;99.84;100789.44;5096190;28;20393;-80
2021/09/29 12:41:10;;;;;;;0.30;0.30;;;;;;;14.62;99.38;100784.00;5094047;28;20052;-82
2021/09/29 12:43:44;;;;;;;0.30;0.30;;;;;;;14.67;100.00;100779.53;5095965;28;20047;-82
2021/09/29 12:46:19;;;;;;;0.20;0.20;;;;;;;14.77;98.77;100784.78;5098508;28;20048;-81
2021/09/29 12:48:48;;;;;;;0.20;0.20;;;;;;;14.84;98.23;100785.19;5093159;28;20058;-81
2021/09/29 12:51:23;;;;;;;0.40;0.30;;;;;;;14.86;99.91;100782.13;5092020;28;20059;-82
2021/09/29 12:54:01;;;;;;;0.13;0.13;;;;;;;14.94;100.00;100776.75;5096742;28;20115;-81
2021/09/29 12:56:34;;;;;;;0.30;0.30;;;;;;;15.01;97.23;100767.28;5099968;28;20047;-81
2021/09/29 12:59:03;;;;;;;0.20;0.20;;;;;;;14.96;99.12;100763.53;5096227;28;20411;-81
2021/09/29 13:01:36;;;;;;;0.20;0.20;;;;;;;14.93;98.71;100771.59;5099932;28;20419;-81
2021/09/29 13:04:09;;;;;;;0.20;0.20;;;;;;;14.85;98.64;100764.88;5101030;28;20047;-82
2021/09/29 13:06:37;;;;;;;0.30;0.30;;;;;;;14.89;100.00;100759.63;5098503;28;20051;-81
2021/09/29 13:09:12;;;;;;;0.20;0.20;;;;;;;14.95;100.00;100759.16;5098441;28;20423;-81
2021/09/29 13:11:40;;;;;;;0.30;0.30;;;;;;;14.89;98.76;100754.13;5093941;28;20058;-81
2021/09/29 13:14:15;;;;;;;0.20;0.20;;;;;;;14.85;99.87;100759.41;5095805;28;20060;-81
2021/09/29 13:16:48;;;;;;;0.20;0.20;;;;;;;15.06;94.91;100743.31;5096142;28;20055;-82
2021/09/29 13:19:25;;;;;;;0.57;0.30;;;;;;;14.97;95.12;100745.19;5094638;28;20233;-80
2021/09/29 13:22:02;;;;;;;0.20;0.20;;;;;;;14.86;93.78;100739.13;5098720;28;20407;-80
2021/09/29 13:24:50;;;;;;;0.20;0.20;;;;;;;14.97;95.74;100742.44;5101129;28;20050;-81
2021/09/29 13:35:06;;;;;;;0.20;0.20;;;;;;;15.06;99.17;100737.84;5101922;28;20052;-81
2021/09/29 13:36:35;;;;;;;0.30;0.30;;;;;;;14.83;97.11;100737.00;5023368;28;20057;-81
2021/09/29 13:39:06;;;;;;;0.30;0.30;;;;;;;14.72;98.17;100732.84;5073555;28;20052;-80
2021/09/29 13:41:36;;;;;;;0.30;0.30;;;;;;;14.62;98.86;100726.47;5096242;28;20496;-81